Time;durP1;ratioP1;P1;durP2;ratioP2;P2;SDS_P1;SDS_P2;PMS_P1;PMS_P2;Temp;Humidity;BMP_temperature;BMP_pressure;BME280_temperature;BME280_humidity;BME280_pressure;Samples;Min_cycle;Max_cycle;Signal;HPM_P1;HPM_P2
2022/04/02 00:00:06;;;;;;;5.95;2.83;;;2.70;81.60;;;;;;5078608;28;20127;-78
2022/04/02 00:02:32;;;;;;;7.22;2.40;;;2.70;82.00;;;;;;5095392;28;20044;-78
2022/04/02 00:04:58;;;;;;;8.10;2.58;;;2.60;82.10;;;;;;5095634;28;20040;-78
2022/04/02 00:07:23;;;;;;;6.38;1.92;;;2.60;82.00;;;;;;5095561;28;20131;-78
2022/04/02 00:09:49;;;;;;;5.95;2.33;;;2.60;81.50;;;;;;5095389;28;20035;-77
2022/04/02 00:12:15;;;;;;;7.07;3.60;;;2.60;81.60;;;;;;5095634;28;20047;-78
2022/04/02 00:14:41;;;;;;;10.52;2.70;;;2.50;81.40;;;;;;5095198;28;20042;-78
2022/04/02 00:17:06;;;;;;;6.50;2.55;;;2.50;81.40;;;;;;5078441;28;20039;-78
2022/04/02 00:19:32;;;;;;;8.73;2.10;;;2.50;81.40;;;;;;5078124;28;20039;-78
2022/04/02 00:21:58;;;;;;;4.90;2.05;;;2.50;81.20;;;;;;5095405;28;20044;-78
2022/04/02 00:24:24;;;;;;;3.17;2.10;;;2.40;81.00;;;;;;5095489;28;20036;-78
2022/04/02 00:26:49;;;;;;;4.10;1.95;;;2.40;80.70;;;;;;5094907;28;20504;-78
2022/04/02 00:29:15;;;;;;;3.88;2.10;;;2.30;80.60;;;;;;5095081;28;20039;-78
2022/04/02 00:31:41;;;;;;;3.60;1.85;;;2.40;80.40;;;;;;5081929;28;20117;-78
2022/04/02 00:34:07;;;;;;;3.35;1.67;;;2.40;80.30;;;;;;5085074;28;20036;-78
2022/04/02 00:36:37;;;;;;;5.72;2.00;;;2.40;80.20;;;;;;5101722;28;20487;-78
2022/04/02 00:39:07;;;;;;;4.72;2.08;;;2.40;80.00;;;;;;5102010;28;20043;-78
2022/04/02 00:41:32;;;;;;;5.50;2.13;;;2.40;80.00;;;;;;5101680;28;20058;-78
2022/04/02 00:44:10;;;;;;;6.72;1.92;;;2.40;79.90;;;;;;5101771;28;20495;-78
2022/04/02 00:46:36;;;;;;;3.13;2.13;;;2.40;79.90;;;;;;5101590;28;20040;-78
2022/04/02 00:49:04;;;;;;;5.40;2.22;;;2.40;79.70;;;;;;5101712;28;20100;-78
2022/04/02 00:51:31;;;;;;;6.40;2.22;;;2.40;79.30;;;;;;5084848;28;20050;-78
2022/04/02 00:53:57;;;;;;;4.57;1.88;;;2.40;79.20;;;;;;5101679;28;20119;-78
2022/04/02 00:56:24;;;;;;;5.65;1.90;;;2.40;79.10;;;;;;5101458;28;20047;-78
2022/04/02 00:58:50;;;;;;;2.25;1.90;;;2.40;78.60;;;;;;5101578;28;20043;-78
2022/04/02 01:01:16;;;;;;;5.72;2.00;;;2.40;78.40;;;;;;5101614;28;20036;-78
2022/04/02 01:03:43;;;;;;;3.15;1.88;;;2.40;78.20;;;;;;5101573;28;20039;-78
2022/04/02 01:06:10;;;;;;;5.55;1.77;;;2.40;78.40;;;;;;5101409;28;20036;-78
2022/04/02 01:08:37;;;;;;;3.35;1.70;;;2.40;78.60;;;;;;5101530;28;20036;-78
2022/04/02 01:11:03;;;;;;;4.15;1.95;;;2.30;78.50;;;;;;5084899;28;20084;-78
2022/04/02 01:13:30;;;;;;;3.60;1.52;;;2.30;78.40;;;;;;5101461;28;20040;-78
2022/04/02 01:15:58;;;;;;;5.40;1.98;;;2.40;78.30;;;;;;5101422;28;20052;-78
2022/04/02 01:18:24;;;;;;;4.03;1.83;;;2.40;78.20;;;;;;5084955;28;20570;-78
2022/04/02 01:20:50;;;;;;;4.30;1.80;;;2.30;78.20;;;;;;5101680;28;20126;-78
2022/04/02 01:23:16;;;;;;;4.03;1.90;;;2.30;77.80;;;;;;5084763;28;20507;-78
2022/04/02 01:25:41;;;;;;;2.75;1.73;;;2.30;77.80;;;;;;5101291;28;20491;-78
2022/04/02 01:28:07;;;;;;;3.38;1.63;;;2.20;77.50;;;;;;5101525;28;20036;-78
2022/04/02 01:30:33;;;;;;;2.53;1.63;;;2.20;77.20;;;;;;5101471;28;20039;-78
2022/04/02 01:32:59;;;;;;;5.32;1.63;;;2.10;77.50;;;;;;5084467;28;20085;-78
2022/04/02 01:35:25;;;;;;;3.03;1.20;;;2.10;77.00;;;;;;5101450;28;20118;-78
2022/04/02 01:37:52;;;;;;;7.45;1.80;;;2.10;76.90;;;;;;5101124;28;20054;-78
2022/04/02 01:40:18;;;;;;;5.28;1.60;;;2.00;76.90;;;;;;5100984;28;20526;-78
2022/04/02 01:42:46;;;;;;;4.13;1.58;;;2.00;77.30;;;;;;5099096;28;20096;-78
2022/04/02 01:45:14;;;;;;;4.53;1.67;;;1.90;77.00;;;;;;5097874;28;20105;-78
2022/04/02 01:47:39;;;;;;;3.25;1.70;;;1.90;77.30;;;;;;5098056;28;20075;-78
2022/04/02 01:50:06;;;;;;;6.07;2.05;;;1.90;77.40;;;;;;5098309;28;20078;-78
2022/04/02 01:52:32;;;;;;;3.83;1.80;;;1.90;77.20;;;;;;5098093;28;20118;-78
2022/04/02 01:54:58;;;;;;;2.97;1.60;;;1.80;77.00;;;;;;5097886;28;20123;-78
2022/04/02 01:57:23;;;;;;;3.97;1.70;;;1.80;77.10;;;;;;5097895;28;20062;-78
2022/04/02 01:59:50;;;;;;;4.18;1.60;;;1.80;76.90;;;;;;5097627;28;20036;-78
2022/04/02 02:02:16;;;;;;;4.22;1.67;;;1.70;76.70;;;;;;5097742;28;20043;-78
2022/04/02 02:04:42;;;;;;;5.97;3.05;;;1.70;77.20;;;;;;5097811;28;20057;-78
2022/04/02 02:07:08;;;;;;;4.07;1.88;;;1.70;77.00;;;;;;5097442;28;20554;-78
2022/04/02 02:09:34;;;;;;;3.78;1.70;;;1.70;77.20;;;;;;5097568;28;20057;-78
2022/04/02 02:12:01;;;;;;;7.35;1.70;;;1.70;76.80;;;;;;5097543;28;20049;-78
2022/04/02 02:14:26;;;;;;;3.08;1.90;;;1.70;77.00;;;;;;5097447;28;20076;-78
2022/04/02 02:16:52;;;;;;;4.15;1.70;;;1.60;76.80;;;;;;5097312;28;20047;-78
2022/04/02 02:19:18;;;;;;;2.67;1.67;;;1.60;77.10;;;;;;5080457;28;20123;-78
2022/04/02 02:21:44;;;;;;;2.75;1.83;;;1.60;77.00;;;;;;5097303;28;20092;-78
2022/04/02 02:24:09;;;;;;;3.83;1.75;;;1.60;77.10;;;;;;5097223;28;20046;-76
2022/04/02 02:26:35;;;;;;;7.68;1.95;;;1.60;77.30;;;;;;5097179;28;20088;-76
2022/04/02 02:29:04;;;;;;;4.15;2.10;;;1.60;77.30;;;;;;5097198;28;20050;-76
2022/04/02 02:31:31;;;;;;;3.20;1.80;;;1.50;77.30;;;;;;5080290;28;20412;-76
2022/04/02 02:36:41;;;;;;;3.65;1.83;;;1.40;77.60;;;;;;5096984;28;20055;-76
2022/04/02 02:39:06;;;;;;;3.80;1.80;;;1.40;77.60;;;;;;5096889;28;20036;-76
2022/04/02 02:41:32;;;;;;;3.28;1.52;;;1.40;77.60;;;;;;5093493;28;20082;-76
2022/04/02 02:43:58;;;;;;;4.13;1.98;;;1.40;77.60;;;;;;5093444;28;20036;-76
2022/04/02 02:46:23;;;;;;;3.63;1.70;;;1.50;77.50;;;;;;5076531;28;20040;-76
2022/04/02 02:48:49;;;;;;;5.25;1.95;;;1.50;77.40;;;;;;5076794;28;20028;-76
2022/04/02 02:51:15;;;;;;;2.83;1.50;;;1.60;77.50;;;;;;5093350;28;20515;-77
2022/04/02 02:53:41;;;;;;;2.92;1.45;;;1.60;77.40;;;;;;5093411;28;20097;-77
2022/04/02 02:56:08;;;;;;;4.63;1.70;;;1.50;77.30;;;;;;5076553;28;20522;-77
2022/04/02 02:58:34;;;;;;;3.65;1.55;;;1.60;77.40;;;;;;5093193;28;20105;-77
2022/04/02 03:01:00;;;;;;;3.25;1.60;;;1.60;77.40;;;;;;5093270;28;20043;-77
2022/04/02 03:03:26;;;;;;;2.92;1.48;;;1.50;77.50;;;;;;5093078;28;20050;-77
2022/04/02 03:05:52;;;;;;;3.58;1.70;;;1.50;77.50;;;;;;5076376;28;20126;-77
2022/04/02 03:08:18;;;;;;;8.73;2.28;;;1.60;77.30;;;;;;5093076;28;20560;-77
2022/04/02 03:10:46;;;;;;;4.30;1.50;;;1.50;77.40;;;;;;5092987;28;20051;-77
2022/04/02 03:13:12;;;;;;;3.65;1.35;;;1.60;77.30;;;;;;5076283;28;20505;-77
2022/04/02 03:15:38;;;;;;;6.45;2.67;;;1.50;77.30;;;;;;5092840;28;20128;-77
2022/04/02 03:18:06;;;;;;;5.68;1.60;;;1.50;77.20;;;;;;5076228;28;20452;-77
2022/04/02 03:20:32;;;;;;;4.85;1.60;;;1.50;77.00;;;;;;5075980;28;20036;-77
2022/04/02 03:22:58;;;;;;;5.30;1.75;;;1.50;77.00;;;;;;5092999;28;20040;-77
2022/04/02 03:25:24;;;;;;;3.78;1.52;;;1.50;77.00;;;;;;5092558;28;20046;-77
2022/04/02 03:27:50;;;;;;;8.25;1.77;;;1.50;77.00;;;;;;5092620;28;20040;-77
2022/04/02 03:30:18;;;;;;;3.83;1.45;;;1.50;77.00;;;;;;5092649;28;20078;-77
2022/04/02 03:32:44;;;;;;;3.60;1.50;;;1.40;76.90;;;;;;5092800;28;20513;-77
2022/04/02 03:35:14;;;;;;;7.53;2.38;;;1.50;76.80;;;;;;5092389;28;20530;-77
2022/04/02 03:37:41;;;;;;;3.78;1.60;;;1.40;76.80;;;;;;5092745;28;20052;-77
2022/04/02 03:40:10;;;;;;;5.43;1.65;;;1.40;76.80;;;;;;5075634;28;20048;-77
2022/04/02 03:42:36;;;;;;;3.80;1.48;;;1.40;76.90;;;;;;5092388;28;20040;-77
2022/04/02 03:45:04;;;;;;;6.47;1.90;;;1.40;77.10;;;;;;5092202;28;20040;-77
2022/04/02 03:47:31;;;;;;;3.90;1.42;;;1.30;77.10;;;;;;5075776;28;20430;-77
2022/04/02 03:49:57;;;;;;;6.63;1.80;;;1.30;77.20;;;;;;5059257;28;20040;-77
2022/04/02 03:52:22;;;;;;;4.00;1.85;;;1.30;77.20;;;;;;5092249;28;20036;-77
2022/04/02 03:54:48;;;;;;;5.00;2.50;;;1.30;77.20;;;;;;5075576;28;20055;-77
2022/04/02 03:57:15;;;;;;;3.00;1.45;;;1.30;77.20;;;;;;5092372;28;20093;-77
2022/04/02 03:59:42;;;;;;;5.07;2.08;;;1.30;77.10;;;;;;5092047;28;20075;-77
2022/04/02 04:02:08;;;;;;;4.38;2.10;;;1.30;77.20;;;;;;5092101;28;20106;-77
2022/04/02 04:04:35;;;;;;;6.32;1.40;;;1.30;77.30;;;;;;5075436;28;20036;-77
2022/04/02 04:07:02;;;;;;;3.63;1.58;;;1.30;77.20;;;;;;5091155;28;20044;-77
2022/04/02 04:09:27;;;;;;;3.60;1.40;;;1.30;77.20;;;;;;5075121;28;20068;-77
2022/04/02 04:11:54;;;;;;;3.78;1.65;;;1.20;77.20;;;;;;5075096;28;20063;-77
2022/04/02 04:14:20;;;;;;;3.95;1.63;;;1.20;77.10;;;;;;5091829;28;20035;-78
2022/04/02 04:16:46;;;;;;;4.10;1.55;;;1.30;77.10;;;;;;5074929;28;20257;-77
2022/04/02 04:19:12;;;;;;;3.03;1.55;;;1.20;77.10;;;;;;5092098;28;20424;-77
2022/04/02 04:21:38;;;;;;;3.83;1.65;;;1.20;77.00;;;;;;5091803;28;20036;-77
2022/04/02 04:24:06;;;;;;;4.65;1.50;;;1.20;77.10;;;;;;5075127;28;20144;-77
2022/04/02 04:26:32;;;;;;;5.85;1.58;;;1.20;77.10;;;;;;5091613;28;20044;-77
2022/04/02 04:28:58;;;;;;;5.28;1.65;;;1.10;77.10;;;;;;5075090;28;20385;-78
2022/04/02 04:31:24;;;;;;;3.58;1.48;;;1.10;77.10;;;;;;5091833;28;20035;-77
2022/04/02 04:33:50;;;;;;;4.07;1.38;;;1.10;77.20;;;;;;5074880;28;20090;-77
2022/04/02 04:36:18;;;;;;;3.83;1.55;;;1.10;77.10;;;;;;5091570;28;20484;-77
2022/04/02 04:38:45;;;;;;;3.53;1.48;;;1.10;77.10;;;;;;5058294;28;20047;-77
2022/04/02 04:41:11;;;;;;;3.30;1.63;;;1.10;77.10;;;;;;5074624;28;20412;-77
2022/04/02 04:43:41;;;;;;;4.38;1.10;;;1.10;77.00;;;;;;5091630;28;20047;-77
2022/04/02 04:46:08;;;;;;;3.00;1.30;;;1.10;77.00;;;;;;5091453;28;20059;-77
2022/04/02 04:48:35;;;;;;;3.63;1.42;;;1.00;76.90;;;;;;5091544;28;20040;-77
2022/04/02 04:51:05;;;;;;;4.03;1.45;;;1.10;77.10;;;;;;5091571;28;20036;-77
2022/04/02 04:53:32;;;;;;;2.35;1.80;;;1.00;77.00;;;;;;5075232;28;20047;-77
2022/04/02 04:55:59;;;;;;;3.15;1.17;;;1.00;77.00;;;;;;5091422;28;20040;-77
2022/04/02 04:58:25;;;;;;;4.18;1.38;;;1.00;76.90;;;;;;5074869;28;20151;-77
2022/04/02 05:00:53;;;;;;;5.00;1.20;;;1.00;77.10;;;;;;5091408;28;20539;-77
2022/04/02 05:03:20;;;;;;;2.70;1.38;;;1.00;77.00;;;;;;5091379;28;20118;-77
2022/04/02 05:05:46;;;;;;;5.38;1.23;;;1.00;77.00;;;;;;5091182;28;20032;-77
2022/04/02 05:08:13;;;;;;;4.60;1.35;;;0.90;77.00;;;;;;5091250;28;20446;-77
2022/04/02 05:10:40;;;;;;;3.40;1.52;;;0.90;77.10;;;;;;5091060;28;20048;-77
2022/04/02 05:13:08;;;;;;;2.50;1.20;;;1.00;77.10;;;;;;5091279;28;20043;-77
2022/04/02 05:15:37;;;;;;;4.03;1.40;;;0.90;77.00;;;;;;5091295;28;20048;-77
2022/04/02 05:18:03;;;;;;;4.45;1.38;;;0.90;77.10;;;;;;5093290;28;20484;-77
2022/04/02 05:20:29;;;;;;;5.05;1.33;;;0.90;77.10;;;;;;5078438;28;20122;-77
2022/04/02 05:22:55;;;;;;;3.65;1.27;;;0.90;77.20;;;;;;5095055;28;20047;-77
2022/04/02 05:25:20;;;;;;;4.80;1.67;;;0.90;77.10;;;;;;5078163;28;20052;-77
2022/04/02 05:27:47;;;;;;;3.80;1.40;;;1.00;77.10;;;;;;5078130;28;20054;-77
2022/04/02 05:30:13;;;;;;;1.63;1.10;;;1.00;77.10;;;;;;5078111;28;20044;-77
2022/04/02 05:32:40;;;;;;;4.70;1.30;;;1.00;77.00;;;;;;5094927;28;20036;-77
2022/04/02 05:35:06;;;;;;;5.25;1.30;;;1.00;77.00;;;;;;5094753;28;20040;-78
2022/04/02 05:37:32;;;;;;;4.80;1.40;;;1.00;77.00;;;;;;5078029;28;20040;-77
2022/04/02 05:39:58;;;;;;;4.88;1.60;;;0.90;77.00;;;;;;5094547;28;20059;-78
2022/04/02 05:42:23;;;;;;;3.88;1.50;;;1.00;77.10;;;;;;5078032;28;20480;-77
2022/04/02 05:44:49;;;;;;;3.50;1.15;;;1.00;77.10;;;;;;5094898;28;20035;-78
2022/04/02 05:47:15;;;;;;;3.92;1.45;;;1.00;77.10;;;;;;5077577;28;20043;-78
2022/04/02 05:49:42;;;;;;;7.60;1.67;;;1.10;77.10;;;;;;5077778;28;20095;-78
2022/04/02 05:52:07;;;;;;;3.95;1.70;;;1.10;77.10;;;;;;5094506;28;20040;-78
2022/04/02 05:54:34;;;;;;;4.47;1.30;;;1.10;77.10;;;;;;5094829;28;20039;-78
2022/04/02 05:57:00;;;;;;;2.33;1.38;;;1.10;77.00;;;;;;5077827;28;20048;-78
2022/04/02 05:59:26;;;;;;;4.03;1.40;;;1.10;77.00;;;;;;5094443;28;20556;-78
2022/04/02 06:01:52;;;;;;;4.30;2.25;;;1.10;77.00;;;;;;5094451;28;20055;-77
2022/04/02 06:04:18;;;;;;;6.43;1.60;;;1.20;77.00;;;;;;5060975;28;20040;-77
2022/04/02 06:06:43;;;;;;;3.97;1.48;;;1.20;76.90;;;;;;5077291;28;20131;-77
2022/04/02 06:09:11;;;;;;;3.00;1.67;;;1.20;76.90;;;;;;5094107;28;20507;-77
2022/04/02 06:11:36;;;;;;;3.80;1.80;;;1.30;76.90;;;;;;5077559;28;20032;-77
2022/04/02 06:14:02;;;;;;;5.47;2.20;;;1.30;76.80;;;;;;5094096;28;20507;-78
2022/04/02 06:16:28;;;;;;;4.78;2.15;;;1.30;76.80;;;;;;5077394;28;20040;-77
2022/04/02 06:18:53;;;;;;;3.17;1.75;;;1.30;76.80;;;;;;5094055;28;20408;-76
2022/04/02 06:21:20;;;;;;;5.47;2.08;;;1.40;76.70;;;;;;5077370;28;20042;-77
2022/04/02 06:23:46;;;;;;;5.95;2.00;;;1.40;76.60;;;;;;5093785;28;20097;-77
2022/04/02 06:26:12;;;;;;;3.35;2.00;;;1.40;76.50;;;;;;5093728;28;20040;-77
2022/04/02 06:28:39;;;;;;;5.28;1.98;;;1.40;76.50;;;;;;5093370;28;20101;-77
2022/04/02 06:31:05;;;;;;;8.40;2.75;;;1.40;76.50;;;;;;5093664;28;20051;-77
2022/04/02 06:33:32;;;;;;;3.60;2.78;;;1.50;76.50;;;;;;5076940;28;20036;-77
2022/04/02 06:35:59;;;;;;;3.72;2.38;;;1.50;76.60;;;;;;5093611;28;20044;-77
2022/04/02 06:38:24;;;;;;;5.07;2.20;;;1.50;76.70;;;;;;5093573;28;20079;-78
2022/04/02 06:40:50;;;;;;;4.82;2.03;;;1.50;76.80;;;;;;5093340;28;20059;-77
2022/04/02 06:43:16;;;;;;;2.90;1.92;;;1.60;77.00;;;;;;5093507;28;20055;-78
2022/04/02 06:45:42;;;;;;;2.72;2.13;;;1.60;76.90;;;;;;5076685;28;20040;-77
2022/04/02 06:48:08;;;;;;;3.65;2.05;;;1.60;77.00;;;;;;5093669;28;20040;-77
2022/04/02 06:50:34;;;;;;;3.70;2.00;;;1.60;77.00;;;;;;5093440;28;20476;-76
2022/04/02 06:52:59;;;;;;;4.40;2.95;;;1.70;77.10;;;;;;5093329;28;20083;-77
2022/04/02 06:55:25;;;;;;;3.17;2.42;;;1.70;77.00;;;;;;5076449;28;20048;-77
2022/04/02 06:57:58;;;;;;;5.63;3.28;;;1.70;77.10;;;;;;5093327;28;20043;-77
2022/04/02 07:00:24;;;;;;;4.38;2.30;;;1.80;77.00;;;;;;5076750;28;20039;-77
2022/04/02 07:02:50;;;;;;;5.10;2.35;;;1.90;77.10;;;;;;5093210;28;20086;-77
2022/04/02 07:05:18;;;;;;;4.32;2.22;;;1.90;77.00;;;;;;5092975;28;20072;-78
2022/04/02 07:07:44;;;;;;;4.60;2.28;;;1.90;76.90;;;;;;5093070;28;20071;-77
2022/04/02 07:10:11;;;;;;;4.95;2.42;;;2.00;76.90;;;;;;5093020;28;20153;-77
2022/04/02 07:12:37;;;;;;;5.70;2.33;;;2.10;76.80;;;;;;5093015;28;20119;-78
2022/04/02 07:15:04;;;;;;;9.05;2.83;;;2.10;76.80;;;;;;5092824;28;20043;-77
2022/04/02 07:17:30;;;;;;;3.70;2.20;;;2.20;76.70;;;;;;5092902;28;20539;-77
2022/04/02 07:19:58;;;;;;;4.35;2.75;;;2.30;76.70;;;;;;5092839;28;20035;-78
2022/04/02 07:22:25;;;;;;;5.15;2.10;;;2.40;76.50;;;;;;5092692;28;20051;-77
2022/04/02 07:24:52;;;;;;;6.60;2.13;;;2.50;76.30;;;;;;5092714;28;20114;-77
2022/04/02 07:27:27;;;;;;;8.80;2.60;;;2.50;76.10;;;;;;5092747;28;20089;-77
2022/04/02 07:29:53;;;;;;;;;;;2.60;76.10;;;;;;5093435;28;20097;-78
2022/04/02 07:32:19;;;;;;;5.35;2.08;;;2.60;76.00;;;;;;5075736;28;19924;-77
2022/04/02 07:34:45;;;;;;;4.75;2.13;;;2.70;75.90;;;;;;5092604;28;20032;-77
2022/04/02 07:37:40;;;;;;;3.67;2.00;;;2.80;75.70;;;;;;5092519;28;20393;-77
2022/04/02 07:40:20;;;;;;;4.43;2.30;;;2.80;75.70;;;;;;5075056;28;20643;-76
2022/04/02 07:43:14;;;;;;;3.13;2.00;;;2.90;75.40;;;;;;5091925;28;20052;-77
2022/04/02 07:45:47;;;;;;;4.50;1.73;;;3.00;75.40;;;;;;5092209;28;20040;-77
2022/04/02 07:48:16;;;;;;;3.97;1.73;;;3.10;75.40;;;;;;5075821;28;20131;-77
2022/04/02 07:50:45;;;;;;;3.85;1.70;;;3.20;74.70;;;;;;5092554;28;20435;-77
2022/04/02 07:53:22;;;;;;;4.03;1.63;;;3.30;74.80;;;;;;5080729;28;20504;-78
2022/04/02 07:55:57;;;;;;;3.15;1.50;;;3.40;74.10;;;;;;5054446;28;20056;-78
2022/04/02 07:58:30;;;;;;;6.70;2.10;;;3.50;73.90;;;;;;5076077;28;20048;-78
2022/04/02 08:01:01;;;;;;;2.83;1.60;;;3.60;73.40;;;;;;5073200;28;20060;-78
2022/04/02 08:03:29;;;;;;;4.63;1.70;;;3.70;73.30;;;;;;5059645;28;20083;-78
2022/04/02 08:05:55;;;;;;;3.70;1.40;;;3.80;72.50;;;;;;5080789;28;20051;-78
2022/04/02 08:08:25;;;;;;;4.97;1.90;;;3.90;71.20;;;;;;5060942;28;20499;-78
2022/04/02 08:10:54;;;;;;;5.57;1.75;;;4.10;70.60;;;;;;5058008;28;20045;-78
2022/04/02 08:13:21;;;;;;;2.78;1.20;;;4.10;70.50;;;;;;5072146;28;20071;-78
2022/04/02 08:15:51;;;;;;;5.95;1.30;;;4.20;70.30;;;;;;5076145;28;20045;-78
2022/04/02 08:18:21;;;;;;;8.00;1.95;;;4.30;70.20;;;;;;5060115;28;20039;-78
2022/04/02 08:20:49;;;;;;;6.50;1.52;;;4.40;70.40;;;;;;5063779;28;20046;-79
2022/04/02 08:23:15;;;;;;;5.78;1.40;;;4.60;69.70;;;;;;5072656;28;20043;-79
2022/04/02 08:25:49;;;;;;;3.30;1.00;;;4.60;68.40;;;;;;5077627;28;20447;-78
2022/04/02 08:28:37;;;;;;;;;;;4.60;67.30;;;;;;5060167;28;20032;-78
2022/04/02 08:31:29;;;;;;;1.65;0.95;;;4.60;67.20;;;;;;5072293;28;19927;-79
2022/04/02 08:34:12;;;;;;;1.50;0.80;;;4.60;67.10;;;;;;5074220;28;20076;-77
2022/04/02 08:36:49;;;;;;;2.28;1.00;;;4.60;65.50;;;;;;5071798;28;20040;-78
2022/04/02 08:39:36;;;;;;;1.38;0.90;;;4.50;66.40;;;;;;5071532;28;20048;-78
2022/04/02 08:42:43;;;;;;;3.47;1.20;;;4.50;65.10;;;;;;5074637;28;20122;-78
2022/04/02 08:45:11;;;;;;;2.83;1.70;;;4.50;65.90;;;;;;5059212;28;20040;-78
2022/04/02 08:47:51;;;;;;;3.53;2.30;;;4.60;68.30;;;;;;5076951;28;21314;-78
2022/04/02 08:50:17;;;;;;;4.20;1.75;;;4.60;70.40;;;;;;5073868;28;20036;-78
2022/04/02 08:52:52;;;;;;;2.33;1.50;;;4.70;69.60;;;;;;5073018;28;20477;-78
2022/04/02 08:55:31;;;;;;;3.15;1.60;;;5.10;70.70;;;;;;5075040;28;20048;-78
2022/04/02 08:58:20;;;;;;;4.65;2.10;;;5.30;70.90;;;;;;5075331;28;20040;-77
2022/04/02 09:01:07;;;;;;;6.72;2.22;;;5.60;70.80;;;;;;5075244;28;20044;-77
2022/04/02 09:03:50;;;;;;;4.47;1.70;;;5.60;67.70;;;;;;5075345;28;20419;-77
2022/04/02 09:06:34;;;;;;;6.32;1.50;;;5.70;67.80;;;;;;5075081;28;20480;-77
2022/04/02 09:09:08;;;;;;;5.55;1.67;;;5.80;65.70;;;;;;5075162;28;20488;-77
2022/04/02 09:12:12;;;;;;;5.35;1.95;;;5.90;68.10;;;;;;5058636;28;20120;-77
2022/04/02 09:15:07;;;;;;;5.90;1.35;;;6.00;68.80;;;;;;5028004;28;20037;-77
2022/04/02 09:17:39;;;;;;;3.42;1.80;;;6.20;66.50;;;;;;5075199;28;20435;-77
2022/04/02 09:20:35;;;;;;;3.08;1.50;;;6.40;67.10;;;;;;5075040;28;20485;-78
2022/04/02 09:23:15;;;;;;;3.05;1.30;;;6.50;67.10;;;;;;5075150;28;20080;-77
2022/04/02 09:26:22;;;;;;;2.22;1.40;;;6.80;66.40;;;;;;5058287;28;20041;-77
2022/04/02 09:28:54;;;;;;;4.68;1.40;;;6.90;64.80;;;;;;5074697;28;20492;-78
2022/04/02 09:31:41;;;;;;;3.97;1.67;;;7.00;63.70;;;;;;5074587;28;20047;-77
2022/04/02 09:34:25;;;;;;;2.33;0.98;;;7.20;63.20;;;;;;5074555;28;20094;-78
2022/04/02 09:37:08;;;;;;;2.17;0.90;;;7.40;63.70;;;;;;5057917;28;20492;-78
2022/04/02 09:40:05;;;;;;;2.78;1.17;;;7.50;61.00;;;;;;5074682;28;20378;-78
2022/04/02 09:42:43;;;;;;;3.35;1.20;;;7.70;59.80;;;;;;5061424;28;20396;-78
2022/04/02 09:45:17;;;;;;;4.03;1.10;;;7.90;59.50;;;;;;5061253;28;20112;-77
2022/04/02 09:48:07;;;;;;;2.83;0.97;;;7.90;57.70;;;;;;5077808;28;20121;-78
2022/04/02 09:50:34;;;;;;;4.13;1.02;;;7.80;57.50;;;;;;5061045;28;20089;-78
2022/04/02 09:53:19;;;;;;;3.08;0.70;;;7.60;58.90;;;;;;5077869;28;20505;-78
2022/04/02 09:56:15;;;;;;;5.68;1.13;;;7.40;55.80;;;;;;5077524;28;20044;-78
2022/04/02 09:58:53;;;;;;;3.50;1.00;;;7.10;57.00;;;;;;5077520;28;20044;-78
2022/04/02 10:01:30;;;;;;;3.13;1.15;;;6.80;58.60;;;;;;5077540;28;20036;-78
2022/04/02 10:04:04;;;;;;;3.00;1.10;;;6.60;58.70;;;;;;5076383;28;20047;-78
2022/04/02 10:06:40;;;;;;;2.53;0.90;;;6.50;59.20;;;;;;5077356;28;20122;-78
2022/04/02 10:09:10;;;;;;;2.47;0.90;;;6.50;59.00;;;;;;5060790;28;20068;-79
2022/04/02 10:11:54;;;;;;;1.85;0.73;;;6.80;59.10;;;;;;5077614;28;20032;-79
2022/04/02 10:14:22;;;;;;;2.95;0.80;;;7.20;58.80;;;;;;5077219;28;20040;-79
2022/04/02 10:16:57;;;;;;;2.70;0.98;;;7.20;57.90;;;;;;5060954;28;20040;-78
2022/04/02 10:19:38;;;;;;;3.05;0.85;;;7.10;57.80;;;;;;5077645;28;20097;-79
2022/04/02 10:22:17;;;;;;;2.97;0.90;;;7.00;58.50;;;;;;5061178;28;20101;-78
2022/04/02 10:24:53;;;;;;;4.72;1.17;;;7.10;58.10;;;;;;5077465;28;20492;-79
2022/04/02 10:27:45;;;;;;;2.47;1.02;;;7.10;56.00;;;;;;5044888;28;20058;-79
2022/04/02 10:30:16;;;;;;;2.05;1.08;;;6.90;57.90;;;;;;5048462;28;20043;-79
2022/04/02 10:35:53;;;;;;;4.13;1.17;;;6.70;57.00;;;;;;5059512;28;20768;-80
2022/04/02 10:38:21;;;;;;;2.40;0.93;;;6.70;58.50;;;;;;5069775;28;20122;-79
2022/04/02 10:40:52;;;;;;;3.30;1.15;;;7.00;59.70;;;;;;5077069;28;20064;-78
2022/04/02 10:43:27;;;;;;;3.58;0.88;;;7.40;59.00;;;;;;5077467;28;20044;-78
2022/04/02 10:45:52;;;;;;;;;;;7.70;58.30;;;;;;5044510;28;20040;-78
2022/04/02 10:48:52;;;;;;;4.80;1.00;;;7.70;55.30;;;;;;5077568;28;20320;-78
2022/04/02 10:51:23;;;;;;;3.08;1.23;;;7.60;54.90;;;;;;5076897;28;20075;-78
2022/04/02 10:53:57;;;;;;;4.53;1.95;;;7.50;55.10;;;;;;5077343;28;20388;-79
2022/04/02 10:56:27;;;;;;;5.20;1.73;;;7.50;55.90;;;;;;5076996;28;20046;-79
2022/04/02 10:58:54;;;;;;;2.92;1.08;;;7.50;57.10;;;;;;5077018;28;20079;-79
2022/04/02 11:01:22;;;;;;;3.40;1.20;;;7.90;58.00;;;;;;5076920;28;20673;-79
2022/04/02 11:03:58;;;;;;;3.88;1.00;;;8.10;57.10;;;;;;5060189;28;20044;-78
2022/04/02 11:07:02;;;;;;;1.08;0.75;;;8.00;54.80;;;;;;5076671;28;20553;-79
2022/04/02 11:09:32;;;;;;;3.15;0.90;;;7.90;51.60;;;;;;5012355;28;20088;-79
2022/04/02 11:12:03;;;;;;;2.13;0.73;;;7.70;54.30;;;;;;4980284;28;20395;-79
2022/04/02 11:15:02;;;;;;;2.47;1.00;;;7.70;55.80;;;;;;5039493;28;20052;-78
2022/04/02 11:17:33;;;;;;;5.18;1.40;;;7.60;56.30;;;;;;5046266;28;20109;-78
2022/04/02 11:20:15;;;;;;;2.00;0.90;;;7.50;56.60;;;;;;5076278;28;20040;-77
2022/04/02 11:22:57;;;;;;;3.75;1.00;;;7.50;56.40;;;;;;5076811;28;20043;-78
2022/04/02 11:25:29;;;;;;;1.40;0.90;;;7.50;53.60;;;;;;5076328;28;20044;-78
2022/04/02 11:28:16;;;;;;;3.65;1.10;;;7.30;52.90;;;;;;5076234;28;20044;-78
2022/04/02 11:30:44;;;;;;;3.17;1.65;;;7.30;53.50;;;;;;5076234;28;20040;-77
2022/04/02 11:33:14;;;;;;;3.17;0.90;;;7.50;54.20;;;;;;5076409;28;20047;-77
2022/04/02 11:35:46;;;;;;;2.35;0.80;;;7.50;55.20;;;;;;5076417;28;20048;-79
2022/04/02 11:38:21;;;;;;;3.10;0.90;;;7.60;55.40;;;;;;5076504;28;20048;-78
2022/04/02 11:41:01;;;;;;;1.80;1.05;;;7.70;53.30;;;;;;5075961;28;20184;-78
2022/04/02 11:43:36;;;;;;;3.25;1.45;;;7.60;54.50;;;;;;5076338;28;20059;-78
2022/04/02 11:46:08;;;;;;;3.38;1.30;;;7.40;53.70;;;;;;5075841;28;20044;-78
2022/04/02 11:48:48;;;;;;;2.05;0.70;;;7.30;55.90;;;;;;5075664;28;20520;-78
2022/04/02 11:51:34;;;;;;;3.03;0.65;;;7.60;56.40;;;;;;5075894;28;20044;-78
2022/04/02 11:54:10;;;;;;;2.90;0.95;;;8.00;53.70;;;;;;5075487;28;20127;-78
2022/04/02 11:56:43;;;;;;;3.15;0.90;;;8.00;52.30;;;;;;5061006;28;20047;-78
2022/04/02 11:59:13;;;;;;;3.05;0.88;;;7.60;52.00;;;;;;5063669;28;20044;-78
2022/04/02 12:01:48;;;;;;;3.35;0.98;;;7.40;50.70;;;;;;5055699;28;20408;-77
2022/04/02 12:04:19;;;;;;;3.35;0.95;;;7.20;52.20;;;;;;5055629;28;20041;-78
2022/04/02 12:06:47;;;;;;;2.10;0.98;;;7.00;53.70;;;;;;5039101;28;20090;-76
2022/04/02 12:09:24;;;;;;;3.83;0.95;;;6.90;55.60;;;;;;5055705;28;20041;-77
2022/04/02 12:11:58;;;;;;;2.65;1.17;;;6.70;55.80;;;;;;5055423;28;20481;-77
2022/04/02 12:14:36;;;;;;;2.13;0.80;;;6.80;55.60;;;;;;5055692;28;20066;-77
2022/04/02 12:17:15;;;;;;;1.52;0.80;;;7.10;54.50;;;;;;5055649;28;20048;-77
2022/04/02 12:19:44;;;;;;;2.28;0.90;;;7.20;52.60;;;;;;5055608;28;20044;-77
2022/04/02 12:22:19;;;;;;;2.40;1.13;;;7.20;53.50;;;;;;5055683;28;20131;-78
2022/04/02 12:24:48;;;;;;;3.17;1.35;;;7.60;52.70;;;;;;5055587;28;20591;-79
2022/04/02 12:27:18;;;;;;;3.28;0.88;;;7.90;50.90;;;;;;5054823;28;20049;-78
2022/04/02 12:29:49;;;;;;;3.47;0.60;;;8.00;51.00;;;;;;5055326;28;20044;-78
2022/04/02 12:32:30;;;;;;;5.53;0.70;;;8.10;49.60;;;;;;5038376;28;20044;-78
2022/04/02 12:35:08;;;;;;;2.97;0.90;;;8.20;49.50;;;;;;5054766;28;20123;-78
2022/04/02 12:37:45;;;;;;;2.25;0.90;;;8.00;50.30;;;;;;5055128;28;20040;-78
2022/04/02 12:40:19;;;;;;;1.88;0.90;;;7.80;50.50;;;;;;5054607;28;20056;-78
2022/04/02 12:42:46;;;;;;;;;;;8.00;51.00;;;;;;5038849;28;20037;-78
2022/04/02 12:45:21;;;;;;;2.10;0.70;;;8.40;51.70;;;;;;5054685;28;19917;-78
2022/04/02 12:48:02;;;;;;;5.22;1.10;;;8.60;49.40;;;;;;5038132;28;20037;-79
2022/04/02 12:50:33;;;;;;;3.08;1.10;;;9.00;49.70;;;;;;5054729;28;20041;-79
2022/04/02 12:53:00;;;;;;;3.38;0.95;;;9.00;50.00;;;;;;5054751;28;20121;-79
2022/04/02 12:55:28;;;;;;;3.33;1.15;;;9.40;49.10;;;;;;5054804;28;20040;-79
2022/04/02 12:58:00;;;;;;;2.88;1.02;;;9.20;49.00;;;;;;5054621;28;20056;-78
2022/04/02 13:00:36;;;;;;;3.97;1.48;;;9.00;49.00;;;;;;5054514;28;20492;-78
2022/04/02 13:03:03;;;;;;;2.80;0.90;;;8.90;50.40;;;;;;5037995;28;20047;-78
2022/04/02 13:05:49;;;;;;;3.70;1.60;;;8.90;48.10;;;;;;5054471;28;20059;-79
2022/04/02 13:08:17;;;;;;;3.70;0.80;;;9.10;47.50;;;;;;5054295;28;20123;-79
2022/04/02 13:10:45;;;;;;;3.25;1.00;;;9.00;47.90;;;;;;5038046;28;20037;-79
2022/04/02 13:13:13;;;;;;;2.30;0.98;;;8.70;48.40;;;;;;5038117;28;20044;-78
2022/04/02 13:15:39;;;;;;;1.70;0.77;;;8.40;50.10;;;;;;5054743;28;20127;-79
2022/04/02 13:20:59;;;;;;;3.47;0.90;;;8.90;49.50;;;;;;5054586;28;20044;-79
2022/04/02 13:24:09;;;;;;;3.33;0.85;;;9.00;47.70;;;;;;5037812;28;20116;-78